createdAt,value
2022-09-28T00:01:11.430Z,7.98
2022-09-28T00:03:39.609Z,7.72
2022-09-28T00:06:09.940Z,7.91
2022-09-28T00:08:38.318Z,7.83
2022-09-28T00:11:11.210Z,7.62
2022-09-28T00:13:40.435Z,7.81
2022-09-28T00:16:11.456Z,7.96
2022-09-28T00:18:39.711Z,7.92
2022-09-28T00:21:10.150Z,7.76
2022-09-28T00:24:00.007Z,8.20
2022-09-28T00:26:30.802Z,8.10
2022-09-28T00:29:00.806Z,7.99
2022-09-28T00:31:31.807Z,7.61
2022-09-28T00:34:00.545Z,8.15
2022-09-28T00:36:29.915Z,8.26
2022-09-28T00:38:58.436Z,8.02
2022-09-28T00:41:29.712Z,8.06
2022-09-28T00:44:33.354Z,8.20
2022-09-28T00:47:03.674Z,7.82
2022-09-28T00:49:35.229Z,7.39
2022-09-28T00:52:05.172Z,7.14
2022-09-28T00:54:33.514Z,7.02
2022-09-28T00:57:04.322Z,7.05
2022-09-28T00:59:33.059Z,6.95
2022-09-28T01:02:01.840Z,6.86
2022-09-28T01:04:31.437Z,7.00
2022-09-28T01:07:00.521Z,7.05
2022-09-28T01:09:29.245Z,7.07
2022-09-28T01:11:57.483Z,6.94
2022-09-28T01:14:27.638Z,7.30
2022-09-28T01:17:01.990Z,7.36
2022-09-28T01:20:06.065Z,7.11
2022-09-28T01:23:23.467Z,6.73
2022-09-28T01:25:54.987Z,7.10
2022-09-28T01:28:26.930Z,6.72
2022-09-28T01:31:03.399Z,6.58
2022-09-28T01:33:36.619Z,6.43
2022-09-28T01:36:09.007Z,6.34
2022-09-28T01:38:40.774Z,6.25
2022-09-28T01:41:10.746Z,6.22
2022-09-28T01:43:42.158Z,6.15
2022-09-28T01:46:14.154Z,6.09
2022-09-28T01:48:45.910Z,6.04
2022-09-28T01:51:18.551Z,5.89
2022-09-28T01:53:50.409Z,5.83
2022-09-28T01:56:24.739Z,5.76
2022-09-28T01:58:56.557Z,5.82
2022-09-28T02:01:29.566Z,6.02
2022-09-28T02:04:01.693Z,6.30
2022-09-28T02:06:33.311Z,6.33
2022-09-28T02:09:04.914Z,6.32
2022-09-28T02:11:46.675Z,6.23
2022-09-28T02:14:17.565Z,6.16
2022-09-28T02:16:48.786Z,6.55
2022-09-28T02:19:19.704Z,6.26
2022-09-28T02:21:55.646Z,6.01
2022-09-28T02:24:26.289Z,5.80
2022-09-28T02:26:56.273Z,5.64
2022-09-28T02:29:26.256Z,5.83
2022-09-28T02:31:54.766Z,5.98
2022-09-28T02:34:23.042Z,5.86
2022-09-28T02:36:51.489Z,5.83
2022-09-28T02:39:20.157Z,5.82
2022-09-28T02:41:55.979Z,5.92
2022-09-28T02:45:01.986Z,5.89
2022-09-28T02:47:39.780Z,5.79
2022-09-28T02:50:14.193Z,5.90
2022-09-28T02:52:57.771Z,5.79
2022-09-28T02:55:35.012Z,5.53
2022-09-28T02:58:15.292Z,5.56
2022-09-28T03:00:47.478Z,5.72
2022-09-28T03:03:19.992Z,5.69
2022-09-28T03:05:54.566Z,6.09
2022-09-28T03:08:25.776Z,6.13
2022-09-28T03:10:57.893Z,6.00
2022-09-28T03:13:26.546Z,5.94
2022-09-28T03:16:08.652Z,5.74
2022-09-28T03:18:37.136Z,5.67
2022-09-28T03:21:06.201Z,5.48
2022-09-28T03:23:34.711Z,5.39
2022-09-28T03:26:03.476Z,5.31
2022-09-28T03:28:32.015Z,5.17
2022-09-28T03:31:01.769Z,5.09
2022-09-28T03:33:30.250Z,4.98
2022-09-28T03:35:58.489Z,4.90
2022-09-28T03:38:26.749Z,5.10
2022-09-28T03:40:56.347Z,5.32
2022-09-28T03:43:25.430Z,5.34
2022-09-28T03:45:56.723Z,5.18
2022-09-28T03:48:32.109Z,4.98
2022-09-28T03:51:02.309Z,4.87
2022-09-28T03:53:30.998Z,4.83
2022-09-28T03:56:05.036Z,4.84
2022-09-28T03:58:34.109Z,4.91
2022-09-28T04:01:03.873Z,4.79
2022-09-28T04:03:34.020Z,4.80
2022-09-28T04:06:02.588Z,4.83
2022-09-28T04:08:30.969Z,4.74
2022-09-28T04:11:00.568Z,4.66
2022-09-28T04:13:29.904Z,4.68
2022-09-28T04:16:02.247Z,4.65
2022-09-28T04:18:35.323Z,4.60
2022-09-28T04:21:07.886Z,4.60
2022-09-28T04:23:41.629Z,4.63
2022-09-28T04:26:16.733Z,4.68
2022-09-28T04:29:06.354Z,4.68
2022-09-28T04:31:39.482Z,4.56
2022-09-28T04:34:09.593Z,4.66
2022-09-28T04:36:37.933Z,4.81
2022-09-28T04:39:06.555Z,4.98
2022-09-28T04:41:35.249Z,5.31
2022-09-28T04:44:03.673Z,5.18
2022-09-28T04:46:32.133Z,4.99
2022-09-28T04:49:25.574Z,4.93
2022-09-28T04:51:55.371Z,4.93
2022-09-28T04:54:23.592Z,5.20
2022-09-28T04:56:52.993Z,4.90
2022-09-28T04:59:21.403Z,4.70
2022-09-28T05:01:50.420Z,4.52
2022-09-28T05:04:38.491Z,4.49
2022-09-28T05:07:26.930Z,4.44
2022-09-28T05:09:56.325Z,4.36
2022-09-28T05:12:24.693Z,4.35
2022-09-28T05:14:52.948Z,4.52
2022-09-28T05:17:21.274Z,4.81
2022-09-28T05:20:17.025Z,5.08
2022-09-28T05:22:45.765Z,5.22
2022-09-28T05:25:14.465Z,5.30
2022-09-28T05:27:57.091Z,5.60
2022-09-28T05:30:38.317Z,5.81
2022-09-28T05:33:25.102Z,5.95
2022-09-28T05:36:21.403Z,6.03
2022-09-28T05:38:49.734Z,6.12
2022-09-28T05:41:18.015Z,6.01
2022-09-28T05:43:46.811Z,6.13
2022-09-28T05:46:15.697Z,6.07
2022-09-28T05:48:44.022Z,5.98
2022-09-28T05:51:12.399Z,6.10
2022-09-28T05:53:42.017Z,6.15
2022-09-28T05:56:10.779Z,6.07
2022-09-28T05:58:43.334Z,6.26
2022-09-28T06:01:12.653Z,6.32
2022-09-28T06:03:41.024Z,6.20
2022-09-28T06:06:09.297Z,6.28
2022-09-28T06:08:38.828Z,6.24
2022-09-28T06:11:27.892Z,6.37
2022-09-28T06:13:58.467Z,6.35
2022-09-28T06:16:29.928Z,6.25
2022-09-28T06:18:58.323Z,6.57
2022-09-28T06:21:58.350Z,6.80
2022-09-28T06:24:27.698Z,6.81
2022-09-28T06:26:57.494Z,6.56
2022-09-28T06:29:27.111Z,6.50
2022-09-28T06:31:56.243Z,6.53
2022-09-28T06:34:24.927Z,6.76
2022-09-28T06:36:53.825Z,6.80
2022-09-28T06:39:22.404Z,6.93
2022-09-28T06:41:52.632Z,7.08
2022-09-28T06:44:25.235Z,7.19
2022-09-28T06:47:19.763Z,7.15
2022-09-28T06:50:17.278Z,7.39
2022-09-28T06:53:00.558Z,7.39
2022-09-28T06:55:49.247Z,7.70
2022-09-28T06:58:20.869Z,7.64
2022-09-28T07:00:52.457Z,7.68
2022-09-28T07:03:22.477Z,7.89
2022-09-28T07:06:04.801Z,8.18
2022-09-28T07:09:22.894Z,8.50
2022-09-28T07:12:14.463Z,8.84
2022-09-28T07:14:56.423Z,8.71
2022-09-28T07:17:28.551Z,8.93
2022-09-28T07:20:10.705Z,8.98
2022-09-28T07:22:45.420Z,9.20
2022-09-28T07:25:19.527Z,9.04
2022-09-28T07:27:59.738Z,9.26
2022-09-28T07:31:03.746Z,9.22
2022-09-28T07:34:03.164Z,8.92
2022-09-28T07:36:39.230Z,9.06
2022-09-28T07:39:07.784Z,9.36
2022-09-28T07:41:36.334Z,9.26
2022-09-28T07:44:07.691Z,9.46
2022-09-28T07:46:38.162Z,9.60
2022-09-28T07:49:19.436Z,9.90
2022-09-28T07:52:10.838Z,10.10
2022-09-28T07:54:52.340Z,10.27
2022-09-28T07:57:56.320Z,10.19
2022-09-28T08:01:01.230Z,10.36
2022-09-28T08:03:30.477Z,10.45
2022-09-28T08:06:01.188Z,10.47
2022-09-28T08:08:30.267Z,10.52
2022-09-28T08:10:59.863Z,10.62
2022-09-28T08:14:06.719Z,10.70
2022-09-28T08:16:55.527Z,10.81
2022-09-28T08:19:51.185Z,10.85
2022-09-28T08:22:21.878Z,11.05
2022-09-28T08:24:52.863Z,11.12
2022-09-28T08:27:21.316Z,11.10
2022-09-28T08:29:49.832Z,10.96
2022-09-28T08:32:37.247Z,11.37
2022-09-28T08:35:26.493Z,11.60
2022-09-28T08:38:19.438Z,11.66
2022-09-28T08:40:58.867Z,11.89
2022-09-28T08:44:04.564Z,12.17
2022-09-28T08:46:48.266Z,12.09
2022-09-28T08:49:38.555Z,12.20
2022-09-28T08:52:19.227Z,12.35
2022-09-28T08:55:10.206Z,12.40
2022-09-28T08:57:46.216Z,12.36
2022-09-28T09:00:22.629Z,12.55
2022-09-28T09:02:51.130Z,12.25
2022-09-28T09:05:22.696Z,12.62
2022-09-28T09:08:13.343Z,12.86
2022-09-28T09:10:51.110Z,12.81
2022-09-28T09:13:58.210Z,12.49
2022-09-28T09:16:33.785Z,12.49
2022-09-28T09:19:36.491Z,13.10
2022-09-28T09:22:35.168Z,13.14
2022-09-28T09:25:14.878Z,12.99
2022-09-28T09:27:54.932Z,13.33
2022-09-28T09:30:29.870Z,13.34
2022-09-28T09:33:08.167Z,13.12
2022-09-28T09:36:03.918Z,13.16
2022-09-28T09:39:11.388Z,13.30
2022-09-28T09:42:12.974Z,13.30
2022-09-28T09:45:24.002Z,13.28
2022-09-28T09:48:14.023Z,13.17
2022-09-28T09:50:48.941Z,12.97
2022-09-28T09:53:22.372Z,13.01
2022-09-28T09:55:54.973Z,12.97
2022-09-28T09:58:33.099Z,13.30
2022-09-28T10:01:14.235Z,13.59
2022-09-28T10:04:15.727Z,13.64
2022-09-28T10:06:45.440Z,13.56
2022-09-28T10:09:18.589Z,13.94
2022-09-28T10:11:52.326Z,13.75
2022-09-28T10:14:22.660Z,13.69
2022-09-28T10:17:00.540Z,13.83
2022-09-28T10:20:05.154Z,14.16
2022-09-28T10:22:33.611Z,13.95
2022-09-28T10:25:13.122Z,13.84
2022-09-28T10:27:46.053Z,14.14
2022-09-28T10:30:18.511Z,13.89
2022-09-28T10:32:51.434Z,13.98
2022-09-28T10:35:25.496Z,14.21
2022-09-28T10:38:08.045Z,14.36
2022-09-28T10:40:47.062Z,14.60
2022-09-28T10:43:23.663Z,14.74
2022-09-28T10:46:02.475Z,14.83
2022-09-28T10:48:40.381Z,14.51
2022-09-28T10:51:09.801Z,14.64
2022-09-28T10:53:40.333Z,14.83
2022-09-28T10:56:23.949Z,14.97
2022-09-28T10:58:58.536Z,14.88
2022-09-28T11:01:41.561Z,14.98
2022-09-28T11:04:21.884Z,14.96
2022-09-28T11:06:51.574Z,14.99
2022-09-28T11:09:29.930Z,14.88
2022-09-28T11:12:05.166Z,14.94
2022-09-28T11:14:41.877Z,15.15
2022-09-28T11:17:19.715Z,15.29
2022-09-28T11:19:51.481Z,15.12
2022-09-28T11:22:26.253Z,15.31
2022-09-28T11:25:22.025Z,15.22
2022-09-28T11:27:58.751Z,15.30
2022-09-28T11:30:28.994Z,15.00
2022-09-28T11:33:31.571Z,15.20
2022-09-28T11:36:17.213Z,15.16
2022-09-28T11:38:53.788Z,15.17
2022-09-28T11:41:45.659Z,15.40
2022-09-28T11:44:39.535Z,15.84
2022-09-28T11:47:31.085Z,15.67
2022-09-28T11:50:03.424Z,16.02
2022-09-28T11:52:38.733Z,15.82
2022-09-28T11:55:13.265Z,16.16
2022-09-28T11:57:44.754Z,16.62
2022-09-28T12:00:16.827Z,17.01
2022-09-28T12:02:50.622Z,17.31
2022-09-28T12:05:25.173Z,17.77
2022-09-28T12:07:57.842Z,17.60
2022-09-28T12:10:48.744Z,17.80
2022-09-28T12:13:22.841Z,17.53
2022-09-28T12:18:46.180Z,17.42
2022-09-28T12:21:28.926Z,17.13
2022-09-28T12:24:03.897Z,16.58
2022-09-28T12:26:38.009Z,15.76
2022-09-28T12:29:08.591Z,15.81
2022-09-28T12:31:40.675Z,16.03
2022-09-28T12:34:11.267Z,16.49
2022-09-28T12:36:48.714Z,17.67
2022-09-28T12:39:46.812Z,18.46
2022-09-28T12:42:27.994Z,18.96
2022-09-28T12:45:09.916Z,19.34
2022-09-28T12:48:01.167Z,20.21
2022-09-28T12:50:38.804Z,20.28
2022-09-28T12:53:23.618Z,20.10
2022-09-28T12:56:01.431Z,19.79
2022-09-28T12:58:46.027Z,20.14
2022-09-28T13:01:28.112Z,19.54
2022-09-28T13:04:11.434Z,18.82
2022-09-28T13:06:48.749Z,19.30
2022-09-28T13:09:23.245Z,19.09
2022-09-28T13:12:16.925Z,18.92
2022-09-28T13:15:16.647Z,18.94
2022-09-28T13:17:50.729Z,19.08
2022-09-28T13:20:25.298Z,18.87
2022-09-28T13:22:58.990Z,18.83
2022-09-28T13:25:29.099Z,18.44
2022-09-28T13:28:03.076Z,18.40
2022-09-28T13:30:32.261Z,18.44
2022-09-28T13:33:02.723Z,18.46
2022-09-28T13:35:31.186Z,18.37
2022-09-28T13:38:45.784Z,18.10
2022-09-28T13:41:24.988Z,17.93
2022-09-28T13:44:12.080Z,17.74
2022-09-28T13:46:46.423Z,17.47
2022-09-28T13:49:19.408Z,17.47
2022-09-28T13:52:09.405Z,17.57
2022-09-28T13:54:55.758Z,17.07
2022-09-28T13:57:26.201Z,16.76
2022-09-28T14:00:05.809Z,16.99
2022-09-28T14:02:44.491Z,16.99
2022-09-28T14:05:35.178Z,16.73
2022-09-28T14:08:25.699Z,16.69
2022-09-28T14:10:54.898Z,16.52
2022-09-28T14:14:00.664Z,16.38
2022-09-28T14:16:32.350Z,16.24
2022-09-28T14:19:04.728Z,16.30
2022-09-28T14:21:49.169Z,16.37
2022-09-28T14:24:27.443Z,15.89
2022-09-28T14:27:19.291Z,16.04
2022-09-28T14:29:48.481Z,16.03
2022-09-28T14:32:37.474Z,15.80
2022-09-28T14:35:07.821Z,16.10
2022-09-28T14:37:54.805Z,16.07
2022-09-28T14:40:47.140Z,15.99
2022-09-28T14:43:24.553Z,15.94
2022-09-28T14:45:54.632Z,15.93
2022-09-28T14:48:44.386Z,16.14
2022-09-28T14:52:01.119Z,15.84
2022-09-28T14:54:35.503Z,15.81
2022-09-28T14:57:09.522Z,15.76
2022-09-28T14:59:43.619Z,15.68
2022-09-28T15:02:18.390Z,15.66
2022-09-28T15:04:50.455Z,15.68
2022-09-28T15:07:21.519Z,15.44
2022-09-28T15:09:51.466Z,15.45
2022-09-28T15:12:21.990Z,15.57
2022-09-28T15:14:54.333Z,15.41
2022-09-28T15:17:25.346Z,15.40
2022-09-28T15:20:21.224Z,15.47
2022-09-28T15:22:51.583Z,15.52
2022-09-28T15:25:21.339Z,15.47
2022-09-28T15:27:54.230Z,15.34
2022-09-28T15:30:26.348Z,15.20
2022-09-28T15:32:56.931Z,15.00
2022-09-28T15:35:27.315Z,14.91
2022-09-28T15:37:56.626Z,14.84
2022-09-28T15:40:31.571Z,14.90
2022-09-28T15:43:00.128Z,14.85
2022-09-28T15:45:32.638Z,14.69
2022-09-28T15:48:18.988Z,14.77
2022-09-28T15:51:11.927Z,14.80
2022-09-28T15:53:44.591Z,14.80
2022-09-28T15:56:13.136Z,14.55
2022-09-28T15:58:44.636Z,14.59
2022-09-28T16:01:26.920Z,14.27
2022-09-28T16:03:55.324Z,14.17
2022-09-28T16:06:25.037Z,14.20
2022-09-28T16:08:53.836Z,14.17
2022-09-28T16:11:24.305Z,14.10
2022-09-28T16:14:04.543Z,14.10
2022-09-28T16:16:36.638Z,14.25
2022-09-28T16:19:05.302Z,14.17
2022-09-28T16:21:45.087Z,14.03
2022-09-28T16:24:23.891Z,14.00
2022-09-28T16:26:58.527Z,13.93
2022-09-28T16:29:29.700Z,13.81
2022-09-28T16:31:57.927Z,13.86
2022-09-28T16:34:27.394Z,13.76
2022-09-28T16:36:57.054Z,13.69
2022-09-28T16:39:25.498Z,13.60
2022-09-28T16:41:56.131Z,13.63
2022-09-28T16:44:28.534Z,13.62
2022-09-28T16:47:00.741Z,13.53
2022-09-28T16:49:29.132Z,13.53
2022-09-28T16:51:59.638Z,13.46
2022-09-28T16:54:45.098Z,13.40
2022-09-28T16:57:14.856Z,13.32
2022-09-28T16:59:43.187Z,13.37
2022-09-28T17:02:42.038Z,13.39
2022-09-28T17:05:08.048Z,13.36
2022-09-28T17:07:38.114Z,13.43
2022-09-28T17:10:15.550Z,13.34
2022-09-28T17:12:43.923Z,13.24
2022-09-28T17:15:12.339Z,13.21
2022-09-28T17:17:41.123Z,13.47
2022-09-28T17:20:22.485Z,13.37
2022-09-28T17:22:52.490Z,13.29
2022-09-28T17:25:21.688Z,13.34
2022-09-28T17:27:50.572Z,13.20
2022-09-28T17:30:23.595Z,13.19
2022-09-28T17:32:54.395Z,13.22
2022-09-28T17:35:24.563Z,13.20
2022-09-28T17:37:55.300Z,13.16
2022-09-28T17:40:25.303Z,13.10
2022-09-28T17:42:56.213Z,13.06
2022-09-28T17:45:25.917Z,13.03
2022-09-28T17:47:54.221Z,13.00
2022-09-28T17:50:24.700Z,12.93
2022-09-28T17:52:53.754Z,12.95
2022-09-28T17:55:27.471Z,12.94
2022-09-28T17:57:56.434Z,12.94
2022-09-28T18:00:27.546Z,12.78
2022-09-28T18:02:56.270Z,12.77
2022-09-28T18:05:25.865Z,12.76
2022-09-28T18:07:54.766Z,12.70
2022-09-28T18:10:26.390Z,12.75
2022-09-28T18:12:54.683Z,12.77
2022-09-28T18:15:23.064Z,12.78
2022-09-28T18:17:51.432Z,12.69
2022-09-28T18:20:20.101Z,12.68
2022-09-28T18:22:48.555Z,12.60
2022-09-28T18:25:17.055Z,12.55
2022-09-28T18:27:46.882Z,12.51
2022-09-28T18:30:15.345Z,12.52
2022-09-28T18:32:43.778Z,12.49
2022-09-28T18:35:12.296Z,12.42
2022-09-28T18:37:41.576Z,12.48
2022-09-28T18:40:12.963Z,12.40
2022-09-28T18:42:41.710Z,12.35
2022-09-28T18:45:12.607Z,12.36
2022-09-28T18:47:41.319Z,12.43
2022-09-28T18:50:11.675Z,12.38
2022-09-28T18:52:41.062Z,12.34
2022-09-28T18:55:10.432Z,12.31
2022-09-28T18:57:41.350Z,12.29
2022-09-28T19:00:15.385Z,12.21
2022-09-28T19:02:44.022Z,12.21
2022-09-28T19:05:13.306Z,12.24
2022-09-28T19:07:41.774Z,12.22
2022-09-28T19:10:10.451Z,12.14
2022-09-28T19:12:38.907Z,12.22
2022-09-28T19:15:08.576Z,12.19
2022-09-28T19:17:40.067Z,12.18
2022-09-28T19:20:09.403Z,12.20
2022-09-28T19:22:38.015Z,12.19
2022-09-28T19:25:09.818Z,12.16
2022-09-28T19:27:38.700Z,12.13
2022-09-28T19:30:08.641Z,12.20
2022-09-28T19:32:37.053Z,12.11
2022-09-28T19:35:08.502Z,12.13
2022-09-28T19:37:39.257Z,12.09
2022-09-28T19:40:08.931Z,12.10
2022-09-28T19:42:37.608Z,12.10
2022-09-28T19:45:08.797Z,12.16
2022-09-28T19:47:37.789Z,12.15
2022-09-28T19:50:10.411Z,12.12
2022-09-28T19:52:39.034Z,11.98
2022-09-28T19:55:08.916Z,12.02
2022-09-28T19:57:37.317Z,12.07
2022-09-28T20:00:06.801Z,12.12
2022-09-28T20:02:36.007Z,12.12
2022-09-28T20:05:04.873Z,12.16
2022-09-28T20:07:36.289Z,12.16
2022-09-28T20:10:04.887Z,12.06
2022-09-28T20:12:35.103Z,12.12
2022-09-28T20:15:03.607Z,12.12
2022-09-28T20:17:32.087Z,12.09
2022-09-28T20:20:01.073Z,12.15
2022-09-28T20:22:29.467Z,12.13
2022-09-28T20:25:00.706Z,12.07
2022-09-28T20:27:29.307Z,12.06
2022-09-28T20:29:57.877Z,11.95
2022-09-28T20:32:26.196Z,11.98
2022-09-28T20:34:54.816Z,12.23
2022-09-28T20:37:26.436Z,12.24
2022-09-28T20:39:55.381Z,12.10
2022-09-28T20:42:25.416Z,12.08
2022-09-28T20:44:53.904Z,12.16
2022-09-28T20:47:22.328Z,12.05
2022-09-28T20:49:51.057Z,12.07
2022-09-28T20:52:20.010Z,12.12
2022-09-28T20:54:48.408Z,12.02
2022-09-28T20:57:20.145Z,12.07
2022-09-28T20:59:54.493Z,12.01
2022-09-28T21:02:23.696Z,12.00
2022-09-28T21:04:52.505Z,12.04
2022-09-28T21:07:21.066Z,12.04
2022-09-28T21:09:50.617Z,11.99
2022-09-28T21:12:19.233Z,12.03
2022-09-28T21:14:47.535Z,12.02
2022-09-28T21:17:17.301Z,12.02
2022-09-28T21:19:45.584Z,12.07
2022-09-28T21:22:13.850Z,12.06
2022-09-28T21:24:42.074Z,11.91
2022-09-28T21:27:10.338Z,11.83
2022-09-28T21:29:38.613Z,11.74
2022-09-28T21:32:08.275Z,11.72
2022-09-28T21:34:38.131Z,11.73
2022-09-28T21:37:06.965Z,11.70
2022-09-28T21:39:35.293Z,11.77
2022-09-28T21:42:04.160Z,11.78
2022-09-28T21:44:32.380Z,11.80
2022-09-28T21:47:00.964Z,11.69
2022-09-28T21:49:29.197Z,11.82
2022-09-28T21:51:58.895Z,11.73
2022-09-28T21:54:29.010Z,11.77
2022-09-28T21:56:57.331Z,11.83
2022-09-28T21:59:25.947Z,11.87
2022-09-28T22:01:54.357Z,11.79
2022-09-28T22:04:22.749Z,11.81
2022-09-28T22:06:51.473Z,11.89
2022-09-28T22:09:21.152Z,11.85
2022-09-28T22:11:51.212Z,11.85
2022-09-28T22:14:19.602Z,11.84
2022-09-28T22:16:47.915Z,11.90
2022-09-28T22:19:16.494Z,11.89
2022-09-28T22:21:45.210Z,11.90
2022-09-28T22:24:13.452Z,11.93
2022-09-28T22:26:43.200Z,11.88
2022-09-28T22:29:11.653Z,11.95
2022-09-28T22:31:41.627Z,11.91
2022-09-28T22:34:11.006Z,11.92
2022-09-28T22:36:39.364Z,11.97
2022-09-28T22:39:07.851Z,12.03
2022-09-28T22:41:36.191Z,12.15
2022-09-28T22:44:05.987Z,11.97
2022-09-28T22:46:35.384Z,12.14
2022-09-28T22:49:03.870Z,12.16
2022-09-28T22:51:32.304Z,12.03
2022-09-28T22:54:01.299Z,11.94
2022-09-28T22:56:30.399Z,11.90
2022-09-28T22:58:58.815Z,11.98
2022-09-28T23:01:30.038Z,12.17
2022-09-28T23:03:58.909Z,12.22
2022-09-28T23:06:29.144Z,12.44
2022-09-28T23:08:57.573Z,12.40
2022-09-28T23:11:26.102Z,12.57
2022-09-28T23:13:56.013Z,12.59
2022-09-28T23:16:26.825Z,12.72
2022-09-28T23:18:57.300Z,12.39
2022-09-28T23:21:27.148Z,12.57
2022-09-28T23:23:56.977Z,12.50
2022-09-28T23:26:27.491Z,12.41
2022-09-28T23:28:56.191Z,12.44
2022-09-28T23:31:26.143Z,12.22
2022-09-28T23:33:59.682Z,12.22
2022-09-28T23:36:28.083Z,12.24
2022-09-28T23:38:56.445Z,12.38
2022-09-28T23:41:24.659Z,12.42
2022-09-28T23:43:53.026Z,12.37
2022-09-28T23:46:21.542Z,12.52
2022-09-28T23:48:50.468Z,12.37
2022-09-28T23:51:20.110Z,12.20
2022-09-28T23:53:48.445Z,12.24
2022-09-28T23:56:17.086Z,12.30
2022-09-28T23:58:45.510Z,12.29
